sensor_id;sensor_type;location;lat;lon;timestamp;temperature;humidity
19248;DHT22;9758;48.640;8.148;2023-02-12T00:00:10;8.60;55.30
19248;DHT22;9758;48.640;8.148;2023-02-12T00:02:38;8.60;55.40
19248;DHT22;9758;48.640;8.148;2023-02-12T00:05:05;8.60;55.40
19248;DHT22;9758;48.640;8.148;2023-02-12T00:07:32;8.60;55.30
19248;DHT22;9758;48.640;8.148;2023-02-12T00:09:59;8.60;55.90
19248;DHT22;9758;48.640;8.148;2023-02-12T00:12:26;8.60;55.40
19248;DHT22;9758;48.640;8.148;2023-02-12T00:14:52;8.60;55.30
19248;DHT22;9758;48.640;8.148;2023-02-12T00:17:19;8.60;55.30
19248;DHT22;9758;48.640;8.148;2023-02-12T00:19:47;8.60;55.30
19248;DHT22;9758;48.640;8.148;2023-02-12T00:22:15;8.60;55.30
19248;DHT22;9758;48.640;8.148;2023-02-12T00:24:42;8.60;55.40
19248;DHT22;9758;48.640;8.148;2023-02-12T00:27:09;8.60;55.40
19248;DHT22;9758;48.640;8.148;2023-02-12T00:29:36;8.60;55.40
19248;DHT22;9758;48.640;8.148;2023-02-12T00:32:02;8.60;55.40
19248;DHT22;9758;48.640;8.148;2023-02-12T00:34:29;8.60;55.50
19248;DHT22;9758;48.640;8.148;2023-02-12T00:36:57;8.60;55.50
19248;DHT22;9758;48.640;8.148;2023-02-12T00:39:24;8.50;55.50
19248;DHT22;9758;48.640;8.148;2023-02-12T00:41:51;8.60;55.50
19248;DHT22;9758;48.640;8.148;2023-02-12T00:44:17;8.60;55.50
19248;DHT22;9758;48.640;8.148;2023-02-12T00:46:44;8.60;55.50
19248;DHT22;9758;48.640;8.148;2023-02-12T00:49:11;8.60;55.50
19248;DHT22;9758;48.640;8.148;2023-02-12T00:51:38;8.60;55.50
19248;DHT22;9758;48.640;8.148;2023-02-12T00:54:06;8.60;55.60
19248;DHT22;9758;48.640;8.148;2023-02-12T00:56:33;8.50;55.50
19248;DHT22;9758;48.640;8.148;2023-02-12T00:59:00;8.60;55.60
19248;DHT22;9758;48.640;8.148;2023-02-12T01:01:26;8.50;55.50
19248;DHT22;9758;48.640;8.148;2023-02-12T01:03:53;8.50;55.40
19248;DHT22;9758;48.640;8.148;2023-02-12T01:06:20;8.50;55.50
19248;DHT22;9758;48.640;8.148;2023-02-12T01:08:49;8.50;55.60
19248;DHT22;9758;48.640;8.148;2023-02-12T01:11:18;8.50;55.60
19248;DHT22;9758;48.640;8.148;2023-02-12T01:13:45;8.50;55.60
19248;DHT22;9758;48.640;8.148;2023-02-12T01:16:15;8.50;55.60
19248;DHT22;9758;48.640;8.148;2023-02-12T01:18:42;8.50;55.60
19248;DHT22;9758;48.640;8.148;2023-02-12T01:21:14;8.60;55.60
19248;DHT22;9758;48.640;8.148;2023-02-12T01:23:41;8.60;55.60
19248;DHT22;9758;48.640;8.148;2023-02-12T01:26:08;8.60;56.20
19248;DHT22;9758;48.640;8.148;2023-02-12T01:28:38;8.50;55.60
19248;DHT22;9758;48.640;8.148;2023-02-12T01:31:09;8.60;55.60
19248;DHT22;9758;48.640;8.148;2023-02-12T01:33:37;8.50;55.60
19248;DHT22;9758;48.640;8.148;2023-02-12T01:36:04;8.50;55.60
19248;DHT22;9758;48.640;8.148;2023-02-12T01:38:31;8.50;55.60
19248;DHT22;9758;48.640;8.148;2023-02-12T01:41:02;8.50;55.60
19248;DHT22;9758;48.640;8.148;2023-02-12T01:43:29;8.50;55.60
19248;DHT22;9758;48.640;8.148;2023-02-12T01:46:00;8.50;55.60
19248;DHT22;9758;48.640;8.148;2023-02-12T01:48:29;8.50;55.60
19248;DHT22;9758;48.640;8.148;2023-02-12T01:50:58;8.50;55.60
19248;DHT22;9758;48.640;8.148;2023-02-12T01:53:30;8.60;55.70
19248;DHT22;9758;48.640;8.148;2023-02-12T01:56:01;8.60;55.70
19248;DHT22;9758;48.640;8.148;2023-02-12T01:58:30;8.60;56.30
19248;DHT22;9758;48.640;8.148;2023-02-12T02:01:02;8.60;55.80
19248;DHT22;9758;48.640;8.148;2023-02-12T02:03:28;8.60;55.90
19248;DHT22;9758;48.640;8.148;2023-02-12T02:05:59;8.70;55.90
19248;DHT22;9758;48.640;8.148;2023-02-12T02:08:27;8.70;55.90
19248;DHT22;9758;48.640;8.148;2023-02-12T02:10:54;8.70;56.00
19248;DHT22;9758;48.640;8.148;2023-02-12T02:13:21;8.70;55.90
19248;DHT22;9758;48.640;8.148;2023-02-12T02:16:13;8.70;55.90
19248;DHT22;9758;48.640;8.148;2023-02-12T02:18:49;8.80;55.90
19248;DHT22;9758;48.640;8.148;2023-02-12T02:21:39;8.80;55.90
19248;DHT22;9758;48.640;8.148;2023-02-12T02:24:36;8.80;55.90
19248;DHT22;9758;48.640;8.148;2023-02-12T02:27:22;8.80;56.00
19248;DHT22;9758;48.640;8.148;2023-02-12T02:32:54;8.90;55.90
19248;DHT22;9758;48.640;8.148;2023-02-12T02:35:26;8.90;55.90
19248;DHT22;9758;48.640;8.148;2023-02-12T02:38:04;8.90;56.50
19248;DHT22;9758;48.640;8.148;2023-02-12T02:40:36;8.90;56.10
19248;DHT22;9758;48.640;8.148;2023-02-12T02:43:07;8.90;56.00
19248;DHT22;9758;48.640;8.148;2023-02-12T02:45:40;9.00;56.00
19248;DHT22;9758;48.640;8.148;2023-02-12T02:48:11;9.00;56.10
19248;DHT22;9758;48.640;8.148;2023-02-12T02:50:42;9.00;56.00
19248;DHT22;9758;48.640;8.148;2023-02-12T02:53:12;9.10;56.00
19248;DHT22;9758;48.640;8.148;2023-02-12T02:55:44;9.10;56.00
19248;DHT22;9758;48.640;8.148;2023-02-12T02:58:15;9.10;55.90
19248;DHT22;9758;48.640;8.148;2023-02-12T03:00:47;9.10;55.90
19248;DHT22;9758;48.640;8.148;2023-02-12T03:03:18;9.10;55.80
19248;DHT22;9758;48.640;8.148;2023-02-12T03:05:49;9.10;55.80
19248;DHT22;9758;48.640;8.148;2023-02-12T03:08:20;9.10;55.80
19248;DHT22;9758;48.640;8.148;2023-02-12T03:10:53;9.20;55.70
19248;DHT22;9758;48.640;8.148;2023-02-12T03:13:25;9.20;55.70
19248;DHT22;9758;48.640;8.148;2023-02-12T03:15:59;9.20;55.70
19248;DHT22;9758;48.640;8.148;2023-02-12T03:18:28;9.10;55.60
19248;DHT22;9758;48.640;8.148;2023-02-12T03:21:01;9.10;55.60
19248;DHT22;9758;48.640;8.148;2023-02-12T03:23:33;9.10;55.70
19248;DHT22;9758;48.640;8.148;2023-02-12T03:26:05;9.10;55.70
19248;DHT22;9758;48.640;8.148;2023-02-12T03:28:35;9.10;55.70
19248;DHT22;9758;48.640;8.148;2023-02-12T03:31:07;9.10;55.70
19248;DHT22;9758;48.640;8.148;2023-02-12T03:33:43;9.10;55.70
19248;DHT22;9758;48.640;8.148;2023-02-12T03:36:24;9.10;55.80
19248;DHT22;9758;48.640;8.148;2023-02-12T03:38:53;9.10;55.80
19248;DHT22;9758;48.640;8.148;2023-02-12T03:41:24;9.10;55.80
19248;DHT22;9758;48.640;8.148;2023-02-12T03:43:54;9.10;55.70
19248;DHT22;9758;48.640;8.148;2023-02-12T03:46:30;9.10;55.80
19248;DHT22;9758;48.640;8.148;2023-02-12T03:49:05;9.10;55.80
19248;DHT22;9758;48.640;8.148;2023-02-12T03:51:35;9.10;55.70
19248;DHT22;9758;48.640;8.148;2023-02-12T03:54:16;9.10;55.70
19248;DHT22;9758;48.640;8.148;2023-02-12T03:56:47;9.10;55.80
19248;DHT22;9758;48.640;8.148;2023-02-12T03:59:17;9.10;55.80
19248;DHT22;9758;48.640;8.148;2023-02-12T04:01:46;9.10;55.70
19248;DHT22;9758;48.640;8.148;2023-02-12T04:04:14;9.10;55.80
19248;DHT22;9758;48.640;8.148;2023-02-12T04:06:41;9.10;55.80
19248;DHT22;9758;48.640;8.148;2023-02-12T04:09:09;9.10;55.80
19248;DHT22;9758;48.640;8.148;2023-02-12T04:11:48;9.10;55.90
19248;DHT22;9758;48.640;8.148;2023-02-12T04:14:23;9.00;55.80
19248;DHT22;9758;48.640;8.148;2023-02-12T04:17:00;9.00;55.80
19248;DHT22;9758;48.640;8.148;2023-02-12T04:19:32;9.00;55.70
19248;DHT22;9758;48.640;8.148;2023-02-12T04:22:10;9.00;55.60
19248;DHT22;9758;48.640;8.148;2023-02-12T04:24:45;8.90;55.60
19248;DHT22;9758;48.640;8.148;2023-02-12T04:27:20;8.90;55.70
19248;DHT22;9758;48.640;8.148;2023-02-12T04:29:52;8.90;55.80
19248;DHT22;9758;48.640;8.148;2023-02-12T04:32:27;8.90;55.70
19248;DHT22;9758;48.640;8.148;2023-02-12T04:34:58;8.80;55.80
19248;DHT22;9758;48.640;8.148;2023-02-12T04:37:34;8.60;55.70
19248;DHT22;9758;48.640;8.148;2023-02-12T04:40:03;8.50;55.80
19248;DHT22;9758;48.640;8.148;2023-02-12T04:42:30;8.40;56.00
19248;DHT22;9758;48.640;8.148;2023-02-12T04:44:57;8.40;55.90
19248;DHT22;9758;48.640;8.148;2023-02-12T04:47:26;8.40;56.00
19248;DHT22;9758;48.640;8.148;2023-02-12T04:49:52;8.40;56.00
19248;DHT22;9758;48.640;8.148;2023-02-12T04:52:19;8.50;56.00
19248;DHT22;9758;48.640;8.148;2023-02-12T04:54:46;8.50;56.00
19248;DHT22;9758;48.640;8.148;2023-02-12T04:57:12;8.50;56.00
19248;DHT22;9758;48.640;8.148;2023-02-12T04:59:39;8.50;56.00
19248;DHT22;9758;48.640;8.148;2023-02-12T05:02:06;8.60;56.10
19248;DHT22;9758;48.640;8.148;2023-02-12T05:04:34;8.60;56.00
19248;DHT22;9758;48.640;8.148;2023-02-12T05:07:01;8.60;56.00
19248;DHT22;9758;48.640;8.148;2023-02-12T05:09:27;8.60;56.00
19248;DHT22;9758;48.640;8.148;2023-02-12T05:11:54;8.60;56.00
19248;DHT22;9758;48.640;8.148;2023-02-12T05:14:23;8.60;56.00
19248;DHT22;9758;48.640;8.148;2023-02-12T05:16:50;8.70;56.00
19248;DHT22;9758;48.640;8.148;2023-02-12T05:19:16;8.70;56.00
19248;DHT22;9758;48.640;8.148;2023-02-12T05:21:44;8.70;56.00
19248;DHT22;9758;48.640;8.148;2023-02-12T05:24:11;8.70;56.00
19248;DHT22;9758;48.640;8.148;2023-02-12T05:26:38;8.70;56.00
19248;DHT22;9758;48.640;8.148;2023-02-12T05:29:04;8.70;56.00
19248;DHT22;9758;48.640;8.148;2023-02-12T05:31:31;8.70;56.00
19248;DHT22;9758;48.640;8.148;2023-02-12T05:33:58;8.80;56.00
19248;DHT22;9758;48.640;8.148;2023-02-12T05:36:25;8.80;56.00
19248;DHT22;9758;48.640;8.148;2023-02-12T05:38:57;8.80;56.00
19248;DHT22;9758;48.640;8.148;2023-02-12T05:41:24;8.80;56.00
19248;DHT22;9758;48.640;8.148;2023-02-12T05:43:51;8.80;56.00
19248;DHT22;9758;48.640;8.148;2023-02-12T05:46:19;8.80;56.00
19248;DHT22;9758;48.640;8.148;2023-02-12T05:48:46;8.80;56.00
19248;DHT22;9758;48.640;8.148;2023-02-12T05:51:15;8.80;56.00
19248;DHT22;9758;48.640;8.148;2023-02-12T05:53:42;8.80;56.00
19248;DHT22;9758;48.640;8.148;2023-02-12T05:56:12;8.80;56.20
19248;DHT22;9758;48.640;8.148;2023-02-12T05:58:40;8.80;56.10
19248;DHT22;9758;48.640;8.148;2023-02-12T06:01:13;8.80;56.10
19248;DHT22;9758;48.640;8.148;2023-02-12T06:03:40;8.80;56.00
19248;DHT22;9758;48.640;8.148;2023-02-12T06:06:08;8.80;56.10
19248;DHT22;9758;48.640;8.148;2023-02-12T06:08:35;8.70;56.00
19248;DHT22;9758;48.640;8.148;2023-02-12T06:11:03;8.80;56.10
19248;DHT22;9758;48.640;8.148;2023-02-12T06:13:32;8.70;56.00
19248;DHT22;9758;48.640;8.148;2023-02-12T06:15:59;8.70;56.00
19248;DHT22;9758;48.640;8.148;2023-02-12T06:18:27;8.70;56.00
19248;DHT22;9758;48.640;8.148;2023-02-12T06:20:54;8.70;56.00
19248;DHT22;9758;48.640;8.148;2023-02-12T06:23:21;8.70;56.00
19248;DHT22;9758;48.640;8.148;2023-02-12T06:25:48;8.60;56.00
19248;DHT22;9758;48.640;8.148;2023-02-12T06:28:15;8.60;56.00
19248;DHT22;9758;48.640;8.148;2023-02-12T06:30:43;8.60;56.00
19248;DHT22;9758;48.640;8.148;2023-02-12T06:33:10;8.60;56.10
19248;DHT22;9758;48.640;8.148;2023-02-12T06:35:37;8.60;56.10
19248;DHT22;9758;48.640;8.148;2023-02-12T06:38:04;8.50;56.00
19248;DHT22;9758;48.640;8.148;2023-02-12T06:40:31;8.50;56.10
19248;DHT22;9758;48.640;8.148;2023-02-12T06:42:58;8.50;56.10
19248;DHT22;9758;48.640;8.148;2023-02-12T06:45:25;8.40;56.10
19248;DHT22;9758;48.640;8.148;2023-02-12T06:47:53;8.40;56.10
19248;DHT22;9758;48.640;8.148;2023-02-12T06:50:20;8.40;56.10
19248;DHT22;9758;48.640;8.148;2023-02-12T06:52:46;8.40;56.20
19248;DHT22;9758;48.640;8.148;2023-02-12T06:55:13;8.40;56.10
19248;DHT22;9758;48.640;8.148;2023-02-12T06:57:41;8.40;56.20
19248;DHT22;9758;48.640;8.148;2023-02-12T07:00:08;8.30;56.10
19248;DHT22;9758;48.640;8.148;2023-02-12T07:02:35;8.30;56.20
19248;DHT22;9758;48.640;8.148;2023-02-12T07:05:04;8.30;56.20
19248;DHT22;9758;48.640;8.148;2023-02-12T07:07:31;8.30;56.20
19248;DHT22;9758;48.640;8.148;2023-02-12T07:09:58;8.30;56.20
19248;DHT22;9758;48.640;8.148;2023-02-12T07:12:24;8.30;56.30
19248;DHT22;9758;48.640;8.148;2023-02-12T07:14:51;8.30;56.20
19248;DHT22;9758;48.640;8.148;2023-02-12T07:17:18;8.20;56.20
19248;DHT22;9758;48.640;8.148;2023-02-12T07:19:45;8.20;56.20
19248;DHT22;9758;48.640;8.148;2023-02-12T07:22:13;8.20;56.20
19248;DHT22;9758;48.640;8.148;2023-02-12T07:24:39;8.20;56.20
19248;DHT22;9758;48.640;8.148;2023-02-12T07:27:06;8.20;56.30
19248;DHT22;9758;48.640;8.148;2023-02-12T07:29:33;8.20;56.30
19248;DHT22;9758;48.640;8.148;2023-02-12T07:32:00;8.20;56.30
19248;DHT22;9758;48.640;8.148;2023-02-12T07:34:27;8.10;56.30
19248;DHT22;9758;48.640;8.148;2023-02-12T07:36:53;8.10;56.30
19248;DHT22;9758;48.640;8.148;2023-02-12T07:39:22;8.10;56.30
19248;DHT22;9758;48.640;8.148;2023-02-12T07:41:48;8.10;56.30
19248;DHT22;9758;48.640;8.148;2023-02-12T07:44:15;8.10;56.90
19248;DHT22;9758;48.640;8.148;2023-02-12T07:46:43;8.10;56.30
19248;DHT22;9758;48.640;8.148;2023-02-12T07:49:13;8.00;56.30
19248;DHT22;9758;48.640;8.148;2023-02-12T07:51:40;8.00;56.30
19248;DHT22;9758;48.640;8.148;2023-02-12T07:54:08;8.00;56.30
19248;DHT22;9758;48.640;8.148;2023-02-12T07:56:37;8.00;56.30
19248;DHT22;9758;48.640;8.148;2023-02-12T07:59:06;8.00;56.40
19248;DHT22;9758;48.640;8.148;2023-02-12T08:01:35;8.10;56.50
19248;DHT22;9758;48.640;8.148;2023-02-12T08:04:04;8.10;56.60
19248;DHT22;9758;48.640;8.148;2023-02-12T08:06:33;8.20;56.60
19248;DHT22;9758;48.640;8.148;2023-02-12T08:09:03;8.30;56.70
19248;DHT22;9758;48.640;8.148;2023-02-12T08:11:30;8.30;56.60
19248;DHT22;9758;48.640;8.148;2023-02-12T08:14:00;8.40;56.60
19248;DHT22;9758;48.640;8.148;2023-02-12T08:16:28;8.50;56.60
19248;DHT22;9758;48.640;8.148;2023-02-12T08:18:56;8.60;56.70
19248;DHT22;9758;48.640;8.148;2023-02-12T08:21:25;8.70;56.60
19248;DHT22;9758;48.640;8.148;2023-02-12T08:24:01;8.80;56.60
19248;DHT22;9758;48.640;8.148;2023-02-12T08:26:30;8.90;56.60
19248;DHT22;9758;48.640;8.148;2023-02-12T08:29:14;9.00;56.60
19248;DHT22;9758;48.640;8.148;2023-02-12T08:31:42;9.10;56.50
19248;DHT22;9758;48.640;8.148;2023-02-12T08:34:20;9.20;56.50
19248;DHT22;9758;48.640;8.148;2023-02-12T08:36:58;9.30;56.50
19248;DHT22;9758;48.640;8.148;2023-02-12T08:39:28;9.40;56.50
19248;DHT22;9758;48.640;8.148;2023-02-12T08:42:07;9.50;56.50
19248;DHT22;9758;48.640;8.148;2023-02-12T08:44:36;9.60;56.40
19248;DHT22;9758;48.640;8.148;2023-02-12T08:47:05;9.70;56.40
19248;DHT22;9758;48.640;8.148;2023-02-12T08:49:51;9.80;56.30
19248;DHT22;9758;48.640;8.148;2023-02-12T08:52:18;9.90;56.20
19248;DHT22;9758;48.640;8.148;2023-02-12T08:54:44;10.00;56.20
19248;DHT22;9758;48.640;8.148;2023-02-12T08:57:11;10.10;56.20
19248;DHT22;9758;48.640;8.148;2023-02-12T08:59:39;10.10;56.20
19248;DHT22;9758;48.640;8.148;2023-02-12T09:02:07;10.20;56.10
19248;DHT22;9758;48.640;8.148;2023-02-12T09:04:38;10.30;56.10
19248;DHT22;9758;48.640;8.148;2023-02-12T09:07:05;10.30;56.00
19248;DHT22;9758;48.640;8.148;2023-02-12T09:09:32;10.20;55.90
19248;DHT22;9758;48.640;8.148;2023-02-12T09:11:58;10.10;55.90
19248;DHT22;9758;48.640;8.148;2023-02-12T09:14:25;10.00;55.90
19248;DHT22;9758;48.640;8.148;2023-02-12T09:16:54;10.00;56.10
19248;DHT22;9758;48.640;8.148;2023-02-12T09:19:21;10.00;56.30
19248;DHT22;9758;48.640;8.148;2023-02-12T09:21:50;10.10;56.30
19248;DHT22;9758;48.640;8.148;2023-02-12T09:24:19;10.10;56.20
19248;DHT22;9758;48.640;8.148;2023-02-12T09:26:46;10.20;56.10
19248;DHT22;9758;48.640;8.148;2023-02-12T09:29:13;10.20;56.10
19248;DHT22;9758;48.640;8.148;2023-02-12T09:31:39;10.20;56.20
19248;DHT22;9758;48.640;8.148;2023-02-12T09:34:08;10.30;56.10
19248;DHT22;9758;48.640;8.148;2023-02-12T09:36:34;10.40;56.20
19248;DHT22;9758;48.640;8.148;2023-02-12T09:39:02;10.50;56.20
19248;DHT22;9758;48.640;8.148;2023-02-12T09:42:00;10.50;56.70
19248;DHT22;9758;48.640;8.148;2023-02-12T09:44:36;10.60;56.00
19248;DHT22;9758;48.640;8.148;2023-02-12T09:47:12;10.70;55.90
19248;DHT22;9758;48.640;8.148;2023-02-12T09:50:02;10.70;55.90
19248;DHT22;9758;48.640;8.148;2023-02-12T09:52:37;10.80;55.90
19248;DHT22;9758;48.640;8.148;2023-02-12T09:55:04;10.90;55.70
19248;DHT22;9758;48.640;8.148;2023-02-12T09:57:35;10.90;55.70
19248;DHT22;9758;48.640;8.148;2023-02-12T10:00:05;10.90;55.70
19248;DHT22;9758;48.640;8.148;2023-02-12T10:02:34;10.90;55.70
19248;DHT22;9758;48.640;8.148;2023-02-12T10:05:13;10.90;55.70
19248;DHT22;9758;48.640;8.148;2023-02-12T10:07:56;11.00;55.80
19248;DHT22;9758;48.640;8.148;2023-02-12T10:10:34;11.00;55.80
19248;DHT22;9758;48.640;8.148;2023-02-12T10:13:09;11.10;55.80
19248;DHT22;9758;48.640;8.148;2023-02-12T10:15:38;11.20;55.60
19248;DHT22;9758;48.640;8.148;2023-02-12T10:18:27;11.20;55.60
19248;DHT22;9758;48.640;8.148;2023-02-12T10:21:05;11.20;55.70
19248;DHT22;9758;48.640;8.148;2023-02-12T10:26:44;11.30;55.10
19248;DHT22;9758;48.640;8.148;2023-02-12T10:29:16;11.30;55.30
19248;DHT22;9758;48.640;8.148;2023-02-12T10:31:45;11.30;55.60
19248;DHT22;9758;48.640;8.148;2023-02-12T10:34:17;11.40;55.60
19248;DHT22;9758;48.640;8.148;2023-02-12T10:36:47;11.40;55.50
19248;DHT22;9758;48.640;8.148;2023-02-12T10:39:19;11.50;55.60
19248;DHT22;9758;48.640;8.148;2023-02-12T10:41:51;11.60;55.50
19248;DHT22;9758;48.640;8.148;2023-02-12T10:44:18;11.60;55.30
19248;DHT22;9758;48.640;8.148;2023-02-12T10:46:45;11.60;55.20
19248;DHT22;9758;48.640;8.148;2023-02-12T10:49:14;11.70;55.30
19248;DHT22;9758;48.640;8.148;2023-02-12T10:51:56;11.70;55.30
19248;DHT22;9758;48.640;8.148;2023-02-12T10:54:32;11.80;55.40
19248;DHT22;9758;48.640;8.148;2023-02-12T10:57:07;11.80;55.40
19248;DHT22;9758;48.640;8.148;2023-02-12T10:59:35;11.90;55.40
19248;DHT22;9758;48.640;8.148;2023-02-12T11:02:03;12.00;55.20
19248;DHT22;9758;48.640;8.148;2023-02-12T11:04:32;12.10;56.00
19248;DHT22;9758;48.640;8.148;2023-02-12T11:07:02;12.10;55.30
19248;DHT22;9758;48.640;8.148;2023-02-12T11:09:34;12.30;55.20
19248;DHT22;9758;48.640;8.148;2023-02-12T11:12:30;12.30;55.00
19248;DHT22;9758;48.640;8.148;2023-02-12T11:15:00;12.40;55.70
19248;DHT22;9758;48.640;8.148;2023-02-12T11:17:32;12.50;55.10
19248;DHT22;9758;48.640;8.148;2023-02-12T11:20:24;12.50;55.00
19248;DHT22;9758;48.640;8.148;2023-02-12T11:22:56;12.50;54.80
19248;DHT22;9758;48.640;8.148;2023-02-12T11:25:24;12.50;54.90
19248;DHT22;9758;48.640;8.148;2023-02-12T11:27:59;12.60;54.90
19248;DHT22;9758;48.640;8.148;2023-02-12T11:30:26;12.60;54.90
19248;DHT22;9758;48.640;8.148;2023-02-12T11:32:53;12.70;55.00
19248;DHT22;9758;48.640;8.148;2023-02-12T11:35:21;12.70;54.90
19248;DHT22;9758;48.640;8.148;2023-02-12T11:37:57;12.80;54.90
19248;DHT22;9758;48.640;8.148;2023-02-12T11:40:26;12.80;54.90
19248;DHT22;9758;48.640;8.148;2023-02-12T11:42:56;12.90;54.80
19248;DHT22;9758;48.640;8.148;2023-02-12T11:45:29;13.00;54.70
19248;DHT22;9758;48.640;8.148;2023-02-12T11:47:57;13.00;54.60
19248;DHT22;9758;48.640;8.148;2023-02-12T11:50:26;13.00;54.70
19248;DHT22;9758;48.640;8.148;2023-02-12T11:52:58;13.00;54.70
19248;DHT22;9758;48.640;8.148;2023-02-12T11:55:28;13.00;54.60
19248;DHT22;9758;48.640;8.148;2023-02-12T11:58:01;13.10;54.80
19248;DHT22;9758;48.640;8.148;2023-02-12T12:00:32;13.10;54.60
19248;DHT22;9758;48.640;8.148;2023-02-12T12:03:08;13.20;54.70
19248;DHT22;9758;48.640;8.148;2023-02-12T12:05:40;13.20;54.70
19248;DHT22;9758;48.640;8.148;2023-02-12T12:08:17;13.30;54.70
19248;DHT22;9758;48.640;8.148;2023-02-12T12:10:48;13.30;54.60
19248;DHT22;9758;48.640;8.148;2023-02-12T12:13:20;13.40;54.60
19248;DHT22;9758;48.640;8.148;2023-02-12T12:15:52;13.50;54.40
19248;DHT22;9758;48.640;8.148;2023-02-12T12:18:43;13.50;54.20
19248;DHT22;9758;48.640;8.148;2023-02-12T12:21:35;13.50;54.30
19248;DHT22;9758;48.640;8.148;2023-02-12T12:24:10;13.50;54.50
19248;DHT22;9758;48.640;8.148;2023-02-12T12:26:41;13.50;54.20
19248;DHT22;9758;48.640;8.148;2023-02-12T12:29:15;13.60;54.40
19248;DHT22;9758;48.640;8.148;2023-02-12T12:31:45;13.60;54.40
19248;DHT22;9758;48.640;8.148;2023-02-12T12:34:14;13.60;54.40
19248;DHT22;9758;48.640;8.148;2023-02-12T12:37:14;13.60;53.90
19248;DHT22;9758;48.640;8.148;2023-02-12T12:39:53;13.60;54.30
19248;DHT22;9758;48.640;8.148;2023-02-12T12:42:46;13.60;54.50
19248;DHT22;9758;48.640;8.148;2023-02-12T12:45:25;13.70;54.30
19248;DHT22;9758;48.640;8.148;2023-02-12T12:48:07;13.80;54.40
19248;DHT22;9758;48.640;8.148;2023-02-12T12:53:45;14.00;54.30
19248;DHT22;9758;48.640;8.148;2023-02-12T12:56:37;14.10;54.20
19248;DHT22;9758;48.640;8.148;2023-02-12T12:59:33;14.10;54.10
19248;DHT22;9758;48.640;8.148;2023-02-12T13:02:48;14.20;53.90
19248;DHT22;9758;48.640;8.148;2023-02-12T13:05:53;14.20;54.00
19248;DHT22;9758;48.640;8.148;2023-02-12T13:11:20;14.40;53.90
19248;DHT22;9758;48.640;8.148;2023-02-12T13:13:56;14.40;53.60
19248;DHT22;9758;48.640;8.148;2023-02-12T13:16:30;14.40;53.90
19248;DHT22;9758;48.640;8.148;2023-02-12T13:19:05;14.40;53.90
19248;DHT22;9758;48.640;8.148;2023-02-12T13:21:42;14.40;53.80
19248;DHT22;9758;48.640;8.148;2023-02-12T13:24:21;14.50;53.90
19248;DHT22;9758;48.640;8.148;2023-02-12T13:26:54;14.50;53.50
19248;DHT22;9758;48.640;8.148;2023-02-12T13:29:25;14.50;53.30
19248;DHT22;9758;48.640;8.148;2023-02-12T13:31:54;14.50;53.50
19248;DHT22;9758;48.640;8.148;2023-02-12T13:34:23;14.40;53.30
19248;DHT22;9758;48.640;8.148;2023-02-12T13:36:54;14.40;53.60
19248;DHT22;9758;48.640;8.148;2023-02-12T13:39:28;14.40;53.80
19248;DHT22;9758;48.640;8.148;2023-02-12T13:42:02;14.40;53.90
19248;DHT22;9758;48.640;8.148;2023-02-12T13:44:38;14.50;53.90
19248;DHT22;9758;48.640;8.148;2023-02-12T13:47:12;14.50;53.80
19248;DHT22;9758;48.640;8.148;2023-02-12T13:49:45;14.60;53.70
19248;DHT22;9758;48.640;8.148;2023-02-12T13:52:18;14.70;53.80
19248;DHT22;9758;48.640;8.148;2023-02-12T13:54:55;14.70;53.60
19248;DHT22;9758;48.640;8.148;2023-02-12T13:57:24;14.80;53.30
19248;DHT22;9758;48.640;8.148;2023-02-12T13:59:51;14.70;53.40
19248;DHT22;9758;48.640;8.148;2023-02-12T14:02:41;14.80;53.30
19248;DHT22;9758;48.640;8.148;2023-02-12T14:05:24;14.70;53.40
19248;DHT22;9758;48.640;8.148;2023-02-12T14:07:53;14.70;53.30
19248;DHT22;9758;48.640;8.148;2023-02-12T14:10:24;14.70;53.30
19248;DHT22;9758;48.640;8.148;2023-02-12T14:12:55;14.70;53.40
19248;DHT22;9758;48.640;8.148;2023-02-12T14:15:31;14.70;53.60
19248;DHT22;9758;48.640;8.148;2023-02-12T14:18:27;14.80;53.50
19248;DHT22;9758;48.640;8.148;2023-02-12T14:24:45;14.80;53.30
19248;DHT22;9758;48.640;8.148;2023-02-12T14:27:29;14.80;53.30
19248;DHT22;9758;48.640;8.148;2023-02-12T14:30:31;14.80;53.30
19248;DHT22;9758;48.640;8.148;2023-02-12T14:33:15;14.80;52.90
19248;DHT22;9758;48.640;8.148;2023-02-12T14:35:44;14.80;53.30
19248;DHT22;9758;48.640;8.148;2023-02-12T14:41:34;14.80;53.20
19248;DHT22;9758;48.640;8.148;2023-02-12T14:44:47;14.80;52.80
19248;DHT22;9758;48.640;8.148;2023-02-12T14:47:48;14.60;53.10
19248;DHT22;9758;48.640;8.148;2023-02-12T14:50:22;14.60;53.30
19248;DHT22;9758;48.640;8.148;2023-02-12T14:52:53;14.70;53.40
19248;DHT22;9758;48.640;8.148;2023-02-12T14:55:25;14.60;53.40
19248;DHT22;9758;48.640;8.148;2023-02-12T14:57:58;14.60;53.40
19248;DHT22;9758;48.640;8.148;2023-02-12T15:00:29;14.70;53.40
19248;DHT22;9758;48.640;8.148;2023-02-12T15:03:01;14.70;53.50
19248;DHT22;9758;48.640;8.148;2023-02-12T15:05:33;14.70;53.00
19248;DHT22;9758;48.640;8.148;2023-02-12T15:08:17;14.60;52.90
19248;DHT22;9758;48.640;8.148;2023-02-12T15:10:48;14.50;53.20
19248;DHT22;9758;48.640;8.148;2023-02-12T15:13:22;14.40;53.20
19248;DHT22;9758;48.640;8.148;2023-02-12T15:15:52;14.40;53.30
19248;DHT22;9758;48.640;8.148;2023-02-12T15:18:27;14.30;53.50
19248;DHT22;9758;48.640;8.148;2023-02-12T15:31:40;14.30;53.60
19248;DHT22;9758;48.640;8.148;2023-02-12T15:34:19;14.60;54.40
19248;DHT22;9758;48.640;8.148;2023-02-12T15:36:47;14.60;53.90
19248;DHT22;9758;48.640;8.148;2023-02-12T15:39:17;14.60;53.70
19248;DHT22;9758;48.640;8.148;2023-02-12T15:41:44;14.60;53.50
19248;DHT22;9758;48.640;8.148;2023-02-12T15:44:23;14.50;53.40
19248;DHT22;9758;48.640;8.148;2023-02-12T15:46:56;14.40;53.30
19248;DHT22;9758;48.640;8.148;2023-02-12T15:49:35;14.30;53.30
19248;DHT22;9758;48.640;8.148;2023-02-12T15:52:06;14.20;53.30
19248;DHT22;9758;48.640;8.148;2023-02-12T15:54:34;14.10;53.20
19248;DHT22;9758;48.640;8.148;2023-02-12T15:57:08;14.00;53.20
19248;DHT22;9758;48.640;8.148;2023-02-12T15:59:35;13.90;53.20
19248;DHT22;9758;48.640;8.148;2023-02-12T16:02:18;13.80;53.30
19248;DHT22;9758;48.640;8.148;2023-02-12T16:04:51;13.70;53.30
19248;DHT22;9758;48.640;8.148;2023-02-12T16:07:18;13.60;53.30
19248;DHT22;9758;48.640;8.148;2023-02-12T16:09:46;13.50;53.30
19248;DHT22;9758;48.640;8.148;2023-02-12T16:12:15;13.50;53.30
19248;DHT22;9758;48.640;8.148;2023-02-12T16:14:47;13.40;53.30
19248;DHT22;9758;48.640;8.148;2023-02-12T16:17:26;13.30;53.30
19248;DHT22;9758;48.640;8.148;2023-02-12T16:20:06;13.20;53.30
19248;DHT22;9758;48.640;8.148;2023-02-12T16:22:48;13.10;53.40
19248;DHT22;9758;48.640;8.148;2023-02-12T16:25:17;13.00;53.30
19248;DHT22;9758;48.640;8.148;2023-02-12T16:27:52;12.90;53.30
19248;DHT22;9758;48.640;8.148;2023-02-12T16:30:25;12.70;53.30
19248;DHT22;9758;48.640;8.148;2023-02-12T16:32:54;12.50;53.30
19248;DHT22;9758;48.640;8.148;2023-02-12T16:35:29;12.40;53.40
19248;DHT22;9758;48.640;8.148;2023-02-12T16:38:02;12.30;53.50
19248;DHT22;9758;48.640;8.148;2023-02-12T16:40:31;12.20;53.60
19248;DHT22;9758;48.640;8.148;2023-02-12T16:43:22;12.00;53.50
19248;DHT22;9758;48.640;8.148;2023-02-12T16:45:50;11.90;53.60
19248;DHT22;9758;48.640;8.148;2023-02-12T16:48:21;11.80;53.70
19248;DHT22;9758;48.640;8.148;2023-02-12T16:50:52;11.60;53.70
19248;DHT22;9758;48.640;8.148;2023-02-12T16:53:32;11.50;53.80